sensor_id;sensor_type;location;lat;lon;timestamp;P1;durP1;ratioP1;P2;durP2;ratioP2
70576;SDS011;58138;43.138;24.702;2023-11-22T00:00:41;18.35;;;11.93;;
70576;SDS011;58138;43.138;24.702;2023-11-22T00:03:07;17.67;;;11.60;;
70576;SDS011;58138;43.138;24.702;2023-11-22T00:05:32;16.27;;;10.88;;
70576;SDS011;58138;43.138;24.702;2023-11-22T00:07:58;19.73;;;12.75;;
70576;SDS011;58138;43.138;24.702;2023-11-22T00:10:23;20.77;;;13.13;;
70576;SDS011;58138;43.138;24.702;2023-11-22T00:12:49;20.48;;;13.00;;
70576;SDS011;58138;43.138;24.702;2023-11-22T00:15:15;19.45;;;13.25;;
70576;SDS011;58138;43.138;24.702;2023-11-22T00:17:44;19.60;;;12.80;;
70576;SDS011;58138;43.138;24.702;2023-11-22T00:20:10;19.48;;;10.77;;
70576;SDS011;58138;43.138;24.702;2023-11-22T00:22:36;19.50;;;10.57;;
70576;SDS011;58138;43.138;24.702;2023-11-22T00:25:02;23.85;;;12.05;;
70576;SDS011;58138;43.138;24.702;2023-11-22T00:27:28;18.45;;;9.68;;
70576;SDS011;58138;43.138;24.702;2023-11-22T00:29:57;16.98;;;10.63;;
70576;SDS011;58138;43.138;24.702;2023-11-22T00:32:24;16.73;;;8.50;;
70576;SDS011;58138;43.138;24.702;2023-11-22T00:34:50;20.10;;;11.13;;
70576;SDS011;58138;43.138;24.702;2023-11-22T00:37:16;19.92;;;10.30;;
70576;SDS011;58138;43.138;24.702;2023-11-22T00:39:41;21.63;;;12.77;;
70576;SDS011;58138;43.138;24.702;2023-11-22T00:42:07;23.48;;;12.40;;
70576;SDS011;58138;43.138;24.702;2023-11-22T00:44:33;22.73;;;10.98;;
70576;SDS011;58138;43.138;24.702;2023-11-22T00:46:58;16.92;;;8.40;;
70576;SDS011;58138;43.138;24.702;2023-11-22T00:49:24;19.73;;;9.15;;
70576;SDS011;58138;43.138;24.702;2023-11-22T00:51:49;11.82;;;6.25;;
70576;SDS011;58138;43.138;24.702;2023-11-22T00:54:16;14.32;;;8.20;;
70576;SDS011;58138;43.138;24.702;2023-11-22T00:56:42;15.02;;;8.80;;
70576;SDS011;58138;43.138;24.702;2023-11-22T00:59:07;15.93;;;8.98;;
70576;SDS011;58138;43.138;24.702;2023-11-22T01:01:33;14.23;;;9.48;;
70576;SDS011;58138;43.138;24.702;2023-11-22T01:03:59;14.65;;;9.75;;
70576;SDS011;58138;43.138;24.702;2023-11-22T01:06:24;17.60;;;10.65;;
70576;SDS011;58138;43.138;24.702;2023-11-22T01:08:50;15.32;;;10.50;;
70576;SDS011;58138;43.138;24.702;2023-11-22T01:11:16;18.45;;;12.00;;
70576;SDS011;58138;43.138;24.702;2023-11-22T01:13:41;16.60;;;11.75;;
70576;SDS011;58138;43.138;24.702;2023-11-22T01:16:08;16.95;;;10.00;;
70576;SDS011;58138;43.138;24.702;2023-11-22T01:18:36;17.30;;;10.25;;
70576;SDS011;58138;43.138;24.702;2023-11-22T01:21:02;15.95;;;10.80;;
70576;SDS011;58138;43.138;24.702;2023-11-22T01:23:31;15.45;;;9.48;;
70576;SDS011;58138;43.138;24.702;2023-11-22T01:25:57;14.65;;;9.77;;
70576;SDS011;58138;43.138;24.702;2023-11-22T01:28:24;18.05;;;10.43;;
70576;SDS011;58138;43.138;24.702;2023-11-22T01:30:49;14.63;;;10.07;;
70576;SDS011;58138;43.138;24.702;2023-11-22T01:33:15;15.98;;;9.02;;
70576;SDS011;58138;43.138;24.702;2023-11-22T01:35:40;14.32;;;9.57;;
70576;SDS011;58138;43.138;24.702;2023-11-22T01:38:06;29.50;;;15.13;;
70576;SDS011;58138;43.138;24.702;2023-11-22T01:40:33;20.88;;;11.30;;
70576;SDS011;58138;43.138;24.702;2023-11-22T01:42:58;11.48;;;7.18;;
70576;SDS011;58138;43.138;24.702;2023-11-22T01:45:24;21.85;;;10.38;;
70576;SDS011;58138;43.138;24.702;2023-11-22T01:47:50;23.48;;;12.40;;
70576;SDS011;58138;43.138;24.702;2023-11-22T01:50:16;21.98;;;11.68;;
70576;SDS011;58138;43.138;24.702;2023-11-22T01:52:41;9.48;;;6.15;;
70576;SDS011;58138;43.138;24.702;2023-11-22T01:55:08;11.02;;;6.15;;
70576;SDS011;58138;43.138;24.702;2023-11-22T01:57:34;9.82;;;5.88;;
70576;SDS011;58138;43.138;24.702;2023-11-22T02:00:04;9.27;;;5.50;;
70576;SDS011;58138;43.138;24.702;2023-11-22T02:02:33;6.68;;;4.95;;
70576;SDS011;58138;43.138;24.702;2023-11-22T02:04:58;6.82;;;4.55;;
70576;SDS011;58138;43.138;24.702;2023-11-22T02:07:25;7.28;;;4.88;;
70576;SDS011;58138;43.138;24.702;2023-11-22T02:09:52;7.75;;;5.30;;
70576;SDS011;58138;43.138;24.702;2023-11-22T02:12:18;10.48;;;5.60;;
70576;SDS011;58138;43.138;24.702;2023-11-22T02:14:44;8.25;;;5.80;;
70576;SDS011;58138;43.138;24.702;2023-11-22T02:17:10;11.25;;;6.90;;
70576;SDS011;58138;43.138;24.702;2023-11-22T02:19:36;10.30;;;6.00;;
70576;SDS011;58138;43.138;24.702;2023-11-22T02:22:02;11.55;;;7.18;;
70576;SDS011;58138;43.138;24.702;2023-11-22T02:24:27;10.90;;;7.68;;
70576;SDS011;58138;43.138;24.702;2023-11-22T02:26:53;11.32;;;6.55;;
70576;SDS011;58138;43.138;24.702;2023-11-22T02:29:18;9.05;;;6.70;;
70576;SDS011;58138;43.138;24.702;2023-11-22T02:31:45;11.18;;;6.75;;
70576;SDS011;58138;43.138;24.702;2023-11-22T02:34:10;13.75;;;8.20;;
70576;SDS011;58138;43.138;24.702;2023-11-22T02:36:36;12.45;;;8.45;;
70576;SDS011;58138;43.138;24.702;2023-11-22T02:39:02;14.63;;;9.05;;
70576;SDS011;58138;43.138;24.702;2023-11-22T02:41:28;14.30;;;8.18;;
70576;SDS011;58138;43.138;24.702;2023-11-22T02:43:56;12.85;;;7.50;;
70576;SDS011;58138;43.138;24.702;2023-11-22T02:46:22;11.93;;;7.22;;
70576;SDS011;58138;43.138;24.702;2023-11-22T02:48:48;10.25;;;6.88;;
70576;SDS011;58138;43.138;24.702;2023-11-22T02:51:14;11.40;;;6.70;;
70576;SDS011;58138;43.138;24.702;2023-11-22T02:53:40;11.65;;;6.45;;
70576;SDS011;58138;43.138;24.702;2023-11-22T02:56:08;11.80;;;6.88;;
70576;SDS011;58138;43.138;24.702;2023-11-22T02:58:34;10.45;;;7.07;;
70576;SDS011;58138;43.138;24.702;2023-11-22T03:01:00;8.45;;;6.40;;
70576;SDS011;58138;43.138;24.702;2023-11-22T03:03:26;9.52;;;6.43;;
70576;SDS011;58138;43.138;24.702;2023-11-22T03:05:52;11.00;;;6.43;;
70576;SDS011;58138;43.138;24.702;2023-11-22T03:08:17;9.95;;;6.30;;
70576;SDS011;58138;43.138;24.702;2023-11-22T03:10:43;11.70;;;7.15;;
70576;SDS011;58138;43.138;24.702;2023-11-22T03:13:08;11.93;;;8.38;;
70576;SDS011;58138;43.138;24.702;2023-11-22T03:15:34;14.93;;;9.00;;
70576;SDS011;58138;43.138;24.702;2023-11-22T03:18:00;15.75;;;9.93;;
70576;SDS011;58138;43.138;24.702;2023-11-22T03:20:26;15.65;;;11.93;;
70576;SDS011;58138;43.138;24.702;2023-11-22T03:22:52;12.77;;;8.82;;
70576;SDS011;58138;43.138;24.702;2023-11-22T03:25:18;12.15;;;8.90;;
70576;SDS011;58138;43.138;24.702;2023-11-22T03:27:43;11.25;;;7.65;;
70576;SDS011;58138;43.138;24.702;2023-11-22T03:30:09;13.38;;;8.43;;
70576;SDS011;58138;43.138;24.702;2023-11-22T03:32:39;10.43;;;7.25;;
70576;SDS011;58138;43.138;24.702;2023-11-22T03:35:05;10.85;;;7.00;;
70576;SDS011;58138;43.138;24.702;2023-11-22T03:37:32;12.40;;;7.30;;
70576;SDS011;58138;43.138;24.702;2023-11-22T03:39:57;12.15;;;7.40;;
70576;SDS011;58138;43.138;24.702;2023-11-22T03:42:23;10.85;;;7.22;;
70576;SDS011;58138;43.138;24.702;2023-11-22T03:44:49;11.02;;;7.32;;
70576;SDS011;58138;43.138;24.702;2023-11-22T03:47:15;10.85;;;7.53;;
70576;SDS011;58138;43.138;24.702;2023-11-22T03:49:41;12.93;;;7.10;;
70576;SDS011;58138;43.138;24.702;2023-11-22T03:52:08;9.57;;;7.47;;
70576;SDS011;58138;43.138;24.702;2023-11-22T03:54:35;12.27;;;7.20;;
70576;SDS011;58138;43.138;24.702;2023-11-22T03:57:01;12.38;;;7.90;;
70576;SDS011;58138;43.138;24.702;2023-11-22T03:59:27;11.82;;;8.32;;
70576;SDS011;58138;43.138;24.702;2023-11-22T04:01:52;13.07;;;8.93;;
70576;SDS011;58138;43.138;24.702;2023-11-22T04:04:19;15.30;;;9.13;;
70576;SDS011;58138;43.138;24.702;2023-11-22T04:06:44;16.50;;;8.85;;
70576;SDS011;58138;43.138;24.702;2023-11-22T04:09:10;13.85;;;9.20;;
70576;SDS011;58138;43.138;24.702;2023-11-22T04:11:37;19.92;;;10.73;;
70576;SDS011;58138;43.138;24.702;2023-11-22T04:14:03;19.55;;;13.15;;
70576;SDS011;58138;43.138;24.702;2023-11-22T04:16:29;18.92;;;11.55;;
70576;SDS011;58138;43.138;24.702;2023-11-22T04:18:54;14.43;;;10.35;;
70576;SDS011;58138;43.138;24.702;2023-11-22T04:21:20;15.13;;;10.02;;
70576;SDS011;58138;43.138;24.702;2023-11-22T04:23:45;16.83;;;10.77;;
70576;SDS011;58138;43.138;24.702;2023-11-22T04:26:11;24.02;;;15.63;;
70576;SDS011;58138;43.138;24.702;2023-11-22T04:28:36;17.65;;;12.05;;
70576;SDS011;58138;43.138;24.702;2023-11-22T04:31:02;20.27;;;12.73;;
70576;SDS011;58138;43.138;24.702;2023-11-22T04:33:29;20.65;;;13.98;;
70576;SDS011;58138;43.138;24.702;2023-11-22T04:35:54;20.48;;;12.68;;
70576;SDS011;58138;43.138;24.702;2023-11-22T04:38:20;22.33;;;16.13;;
70576;SDS011;58138;43.138;24.702;2023-11-22T04:40:45;21.00;;;13.98;;
70576;SDS011;58138;43.138;24.702;2023-11-22T04:43:11;21.02;;;13.73;;
70576;SDS011;58138;43.138;24.702;2023-11-22T04:45:37;23.33;;;16.65;;
70576;SDS011;58138;43.138;24.702;2023-11-22T04:48:03;18.50;;;12.38;;
70576;SDS011;58138;43.138;24.702;2023-11-22T04:50:29;21.92;;;12.10;;
70576;SDS011;58138;43.138;24.702;2023-11-22T04:52:55;19.90;;;11.98;;
70576;SDS011;58138;43.138;24.702;2023-11-22T04:55:20;23.60;;;12.05;;
70576;SDS011;58138;43.138;24.702;2023-11-22T04:57:48;29.95;;;14.38;;
70576;SDS011;58138;43.138;24.702;2023-11-22T05:00:13;20.70;;;12.85;;
70576;SDS011;58138;43.138;24.702;2023-11-22T05:02:39;21.27;;;12.70;;
70576;SDS011;58138;43.138;24.702;2023-11-22T05:05:07;23.42;;;13.80;;
70576;SDS011;58138;43.138;24.702;2023-11-22T05:07:36;28.48;;;14.30;;
70576;SDS011;58138;43.138;24.702;2023-11-22T05:10:02;33.45;;;18.70;;
70576;SDS011;58138;43.138;24.702;2023-11-22T05:12:28;27.85;;;17.00;;
70576;SDS011;58138;43.138;24.702;2023-11-22T05:14:53;31.30;;;18.38;;
70576;SDS011;58138;43.138;24.702;2023-11-22T05:17:19;35.08;;;23.27;;
70576;SDS011;58138;43.138;24.702;2023-11-22T05:19:45;74.75;;;45.38;;
70576;SDS011;58138;43.138;24.702;2023-11-22T05:22:10;36.78;;;20.80;;
70576;SDS011;58138;43.138;24.702;2023-11-22T05:24:36;32.30;;;18.77;;
70576;SDS011;58138;43.138;24.702;2023-11-22T05:27:03;36.92;;;22.55;;
70576;SDS011;58138;43.138;24.702;2023-11-22T05:29:29;40.95;;;22.40;;
70576;SDS011;58138;43.138;24.702;2023-11-22T05:31:55;33.60;;;21.02;;
70576;SDS011;58138;43.138;24.702;2023-11-22T05:34:21;36.15;;;21.23;;
70576;SDS011;58138;43.138;24.702;2023-11-22T05:36:46;35.75;;;20.30;;
70576;SDS011;58138;43.138;24.702;2023-11-22T05:39:12;47.55;;;26.30;;
70576;SDS011;58138;43.138;24.702;2023-11-22T05:41:37;33.35;;;20.70;;
70576;SDS011;58138;43.138;24.702;2023-11-22T05:44:03;44.80;;;22.75;;
70576;SDS011;58138;43.138;24.702;2023-11-22T05:46:29;36.88;;;22.95;;
70576;SDS011;58138;43.138;24.702;2023-11-22T05:48:54;53.28;;;30.55;;
70576;SDS011;58138;43.138;24.702;2023-11-22T05:51:20;40.35;;;20.48;;
70576;SDS011;58138;43.138;24.702;2023-11-22T05:53:46;39.70;;;22.08;;
70576;SDS011;58138;43.138;24.702;2023-11-22T05:56:11;37.58;;;21.00;;
70576;SDS011;58138;43.138;24.702;2023-11-22T05:58:37;35.13;;;20.08;;
70576;SDS011;58138;43.138;24.702;2023-11-22T06:01:06;38.92;;;21.10;;
70576;SDS011;58138;43.138;24.702;2023-11-22T06:03:32;55.53;;;20.92;;
70576;SDS011;58138;43.138;24.702;2023-11-22T06:06:00;35.10;;;20.60;;
70576;SDS011;58138;43.138;24.702;2023-11-22T06:08:25;36.75;;;20.25;;
70576;SDS011;58138;43.138;24.702;2023-11-22T06:10:51;39.20;;;20.92;;
70576;SDS011;58138;43.138;24.702;2023-11-22T06:13:18;38.88;;;21.20;;
70576;SDS011;58138;43.138;24.702;2023-11-22T06:15:43;36.53;;;21.40;;
70576;SDS011;58138;43.138;24.702;2023-11-22T06:18:09;40.28;;;21.20;;
70576;SDS011;58138;43.138;24.702;2023-11-22T06:20:35;40.33;;;22.65;;
70576;SDS011;58138;43.138;24.702;2023-11-22T06:23:00;40.75;;;22.50;;
70576;SDS011;58138;43.138;24.702;2023-11-22T06:25:25;42.67;;;22.55;;
70576;SDS011;58138;43.138;24.702;2023-11-22T06:27:52;39.67;;;22.63;;
70576;SDS011;58138;43.138;24.702;2023-11-22T06:30:17;37.28;;;21.02;;
70576;SDS011;58138;43.138;24.702;2023-11-22T06:32:43;38.40;;;22.40;;
70576;SDS011;58138;43.138;24.702;2023-11-22T06:35:09;36.80;;;21.80;;
70576;SDS011;58138;43.138;24.702;2023-11-22T06:37:39;40.90;;;22.02;;
70576;SDS011;58138;43.138;24.702;2023-11-22T06:40:05;36.95;;;21.00;;
70576;SDS011;58138;43.138;24.702;2023-11-22T06:42:31;36.72;;;20.42;;
70576;SDS011;58138;43.138;24.702;2023-11-22T06:44:58;38.05;;;21.10;;
70576;SDS011;58138;43.138;24.702;2023-11-22T06:47:25;42.03;;;22.38;;
70576;SDS011;58138;43.138;24.702;2023-11-22T06:49:52;40.92;;;21.70;;
70576;SDS011;58138;43.138;24.702;2023-11-22T06:52:18;42.63;;;21.83;;
70576;SDS011;58138;43.138;24.702;2023-11-22T06:54:44;41.45;;;23.50;;
70576;SDS011;58138;43.138;24.702;2023-11-22T06:57:09;79.63;;;47.05;;
70576;SDS011;58138;43.138;24.702;2023-11-22T06:59:35;43.72;;;23.63;;
70576;SDS011;58138;43.138;24.702;2023-11-22T07:02:00;42.88;;;23.83;;
70576;SDS011;58138;43.138;24.702;2023-11-22T07:04:26;47.00;;;25.13;;
70576;SDS011;58138;43.138;24.702;2023-11-22T07:06:52;44.33;;;24.50;;
70576;SDS011;58138;43.138;24.702;2023-11-22T07:09:18;42.58;;;23.45;;
70576;SDS011;58138;43.138;24.702;2023-11-22T07:11:44;46.40;;;27.27;;
70576;SDS011;58138;43.138;24.702;2023-11-22T07:14:09;52.10;;;28.45;;
70576;SDS011;58138;43.138;24.702;2023-11-22T07:16:35;43.83;;;25.27;;
70576;SDS011;58138;43.138;24.702;2023-11-22T07:19:02;43.53;;;24.38;;
70576;SDS011;58138;43.138;24.702;2023-11-22T07:21:28;46.03;;;25.42;;
70576;SDS011;58138;43.138;24.702;2023-11-22T07:23:55;42.17;;;22.58;;
70576;SDS011;58138;43.138;24.702;2023-11-22T07:26:20;37.45;;;22.67;;
70576;SDS011;58138;43.138;24.702;2023-11-22T07:28:46;46.40;;;26.42;;
70576;SDS011;58138;43.138;24.702;2023-11-22T07:31:12;51.58;;;30.92;;
70576;SDS011;58138;43.138;24.702;2023-11-22T07:33:37;59.33;;;33.47;;
70576;SDS011;58138;43.138;24.702;2023-11-22T07:36:04;51.30;;;31.52;;
70576;SDS011;58138;43.138;24.702;2023-11-22T07:38:30;37.65;;;22.15;;
70576;SDS011;58138;43.138;24.702;2023-11-22T07:40:57;30.23;;;20.00;;
70576;SDS011;58138;43.138;24.702;2023-11-22T07:43:22;39.65;;;21.90;;
70576;SDS011;58138;43.138;24.702;2023-11-22T07:45:48;37.13;;;20.58;;
70576;SDS011;58138;43.138;24.702;2023-11-22T07:48:16;36.05;;;21.73;;
70576;SDS011;58138;43.138;24.702;2023-11-22T07:50:41;33.63;;;20.38;;
70576;SDS011;58138;43.138;24.702;2023-11-22T07:53:10;34.00;;;20.63;;
70576;SDS011;58138;43.138;24.702;2023-11-22T07:55:37;44.80;;;21.63;;
70576;SDS011;58138;43.138;24.702;2023-11-22T07:58:03;40.53;;;23.50;;
70576;SDS011;58138;43.138;24.702;2023-11-22T08:00:31;37.15;;;22.30;;
70576;SDS011;58138;43.138;24.702;2023-11-22T08:02:59;36.55;;;22.02;;
70576;SDS011;58138;43.138;24.702;2023-11-22T08:05:27;37.90;;;21.98;;
70576;SDS011;58138;43.138;24.702;2023-11-22T08:08:04;40.20;;;22.73;;
70576;SDS011;58138;43.138;24.702;2023-11-22T08:10:36;37.80;;;22.75;;
70576;SDS011;58138;43.138;24.702;2023-11-22T08:13:01;37.88;;;22.98;;
70576;SDS011;58138;43.138;24.702;2023-11-22T08:15:28;51.67;;;32.92;;
70576;SDS011;58138;43.138;24.702;2023-11-22T08:17:54;36.45;;;21.73;;
70576;SDS011;58138;43.138;24.702;2023-11-22T08:20:19;39.30;;;22.23;;
70576;SDS011;58138;43.138;24.702;2023-11-22T08:22:45;36.25;;;22.05;;
70576;SDS011;58138;43.138;24.702;2023-11-22T08:25:12;64.13;;;36.22;;
70576;SDS011;58138;43.138;24.702;2023-11-22T08:27:38;44.38;;;28.08;;
70576;SDS011;58138;43.138;24.702;2023-11-22T08:30:06;32.92;;;21.08;;
70576;SDS011;58138;43.138;24.702;2023-11-22T08:32:44;32.13;;;20.55;;
70576;SDS011;58138;43.138;24.702;2023-11-22T08:35:16;32.47;;;20.13;;
70576;SDS011;58138;43.138;24.702;2023-11-22T08:37:41;55.30;;;34.97;;
70576;SDS011;58138;43.138;24.702;2023-11-22T08:40:07;40.60;;;26.77;;
70576;SDS011;58138;43.138;24.702;2023-11-22T08:42:36;41.13;;;24.33;;
70576;SDS011;58138;43.138;24.702;2023-11-22T08:45:05;35.97;;;22.42;;
70576;SDS011;58138;43.138;24.702;2023-11-22T08:47:30;54.33;;;34.08;;
70576;SDS011;58138;43.138;24.702;2023-11-22T08:49:56;68.95;;;41.47;;
70576;SDS011;58138;43.138;24.702;2023-11-22T08:52:23;62.22;;;37.92;;
70576;SDS011;58138;43.138;24.702;2023-11-22T08:54:48;54.88;;;30.77;;
70576;SDS011;58138;43.138;24.702;2023-11-22T08:57:15;54.38;;;30.67;;
70576;SDS011;58138;43.138;24.702;2023-11-22T08:59:40;48.78;;;30.55;;
70576;SDS011;58138;43.138;24.702;2023-11-22T09:02:06;46.00;;;30.50;;
70576;SDS011;58138;43.138;24.702;2023-11-22T09:04:33;44.70;;;28.55;;
70576;SDS011;58138;43.138;24.702;2023-11-22T09:06:58;42.55;;;25.92;;
70576;SDS011;58138;43.138;24.702;2023-11-22T09:09:24;32.88;;;22.45;;
70576;SDS011;58138;43.138;24.702;2023-11-22T09:11:58;33.83;;;22.77;;
70576;SDS011;58138;43.138;24.702;2023-11-22T09:14:24;24.33;;;17.17;;
70576;SDS011;58138;43.138;24.702;2023-11-22T09:16:50;24.13;;;16.75;;
70576;SDS011;58138;43.138;24.702;2023-11-22T09:19:22;19.60;;;14.32;;
70576;SDS011;58138;43.138;24.702;2023-11-22T09:21:48;29.42;;;19.27;;
70576;SDS011;58138;43.138;24.702;2023-11-22T09:24:14;40.25;;;26.95;;
70576;SDS011;58138;43.138;24.702;2023-11-22T09:26:40;39.78;;;25.27;;
70576;SDS011;58138;43.138;24.702;2023-11-22T09:29:06;43.05;;;28.17;;
70576;SDS011;58138;43.138;24.702;2023-11-22T09:31:32;41.08;;;27.83;;
70576;SDS011;58138;43.138;24.702;2023-11-22T09:33:57;35.03;;;25.02;;
70576;SDS011;58138;43.138;24.702;2023-11-22T09:36:23;40.47;;;28.35;;
70576;SDS011;58138;43.138;24.702;2023-11-22T09:38:52;43.25;;;29.80;;
70576;SDS011;58138;43.138;24.702;2023-11-22T09:41:18;39.88;;;28.25;;
70576;SDS011;58138;43.138;24.702;2023-11-22T09:43:44;32.42;;;21.73;;
70576;SDS011;58138;43.138;24.702;2023-11-22T09:46:11;37.42;;;25.40;;
70576;SDS011;58138;43.138;24.702;2023-11-22T09:48:39;35.42;;;25.55;;
70576;SDS011;58138;43.138;24.702;2023-11-22T09:51:08;34.72;;;24.75;;
70576;SDS011;58138;43.138;24.702;2023-11-22T09:56:12;33.25;;;23.30;;
70576;SDS011;58138;43.138;24.702;2023-11-22T09:58:40;38.28;;;28.10;;
70576;SDS011;58138;43.138;24.702;2023-11-22T10:01:10;43.58;;;34.13;;
70576;SDS011;58138;43.138;24.702;2023-11-22T10:03:36;49.88;;;39.65;;
70576;SDS011;58138;43.138;24.702;2023-11-22T10:06:02;47.20;;;37.42;;
70576;SDS011;58138;43.138;24.702;2023-11-22T10:08:29;38.58;;;31.35;;
70576;SDS011;58138;43.138;24.702;2023-11-22T10:10:55;27.90;;;21.40;;
70576;SDS011;58138;43.138;24.702;2023-11-22T10:13:21;23.92;;;17.88;;
70576;SDS011;58138;43.138;24.702;2023-11-22T10:15:48;21.65;;;17.58;;
70576;SDS011;58138;43.138;24.702;2023-11-22T10:18:13;22.50;;;17.80;;
70576;SDS011;58138;43.138;24.702;2023-11-22T10:20:40;32.10;;;25.05;;
70576;SDS011;58138;43.138;24.702;2023-11-22T10:23:10;35.17;;;26.40;;
70576;SDS011;58138;43.138;24.702;2023-11-22T10:25:45;35.38;;;26.15;;
70576;SDS011;58138;43.138;24.702;2023-11-22T10:28:18;33.13;;;25.13;;
70576;SDS011;58138;43.138;24.702;2023-11-22T10:30:48;32.97;;;24.38;;
70576;SDS011;58138;43.138;24.702;2023-11-22T10:33:15;25.73;;;20.33;;
70576;SDS011;58138;43.138;24.702;2023-11-22T10:35:50;26.50;;;21.23;;
70576;SDS011;58138;43.138;24.702;2023-11-22T10:38:19;20.83;;;16.98;;
70576;SDS011;58138;43.138;24.702;2023-11-22T10:40:45;15.43;;;12.63;;
70576;SDS011;58138;43.138;24.702;2023-11-22T10:43:11;12.10;;;10.73;;
70576;SDS011;58138;43.138;24.702;2023-11-22T10:45:37;18.15;;;14.45;;
70576;SDS011;58138;43.138;24.702;2023-11-22T10:48:04;22.63;;;15.80;;
70576;SDS011;58138;43.138;24.702;2023-11-22T10:50:30;11.35;;;8.75;;
70576;SDS011;58138;43.138;24.702;2023-11-22T10:52:56;8.52;;;7.57;;
70576;SDS011;58138;43.138;24.702;2023-11-22T10:55:31;10.75;;;9.50;;
70576;SDS011;58138;43.138;24.702;2023-11-22T10:58:03;11.00;;;9.55;;
70576;SDS011;58138;43.138;24.702;2023-11-22T11:00:32;8.00;;;7.20;;
70576;SDS011;58138;43.138;24.702;2023-11-22T11:03:08;8.48;;;7.57;;
70576;SDS011;58138;43.138;24.702;2023-11-22T11:05:41;10.48;;;8.88;;
70576;SDS011;58138;43.138;24.702;2023-11-22T11:08:07;9.75;;;8.75;;
70576;SDS011;58138;43.138;24.702;2023-11-22T11:10:43;8.80;;;7.90;;
70576;SDS011;58138;43.138;24.702;2023-11-22T11:13:11;10.52;;;9.43;;
70576;SDS011;58138;43.138;24.702;2023-11-22T11:15:38;12.80;;;9.80;;
70576;SDS011;58138;43.138;24.702;2023-11-22T11:18:04;14.40;;;11.18;;
70576;SDS011;58138;43.138;24.702;2023-11-22T11:23:16;12.85;;;10.40;;
70576;SDS011;58138;43.138;24.702;2023-11-22T11:26:28;14.43;;;12.13;;
70576;SDS011;58138;43.138;24.702;2023-11-22T11:28:44;12.98;;;11.48;;
70576;SDS011;58138;43.138;24.702;2023-11-22T11:31:11;11.60;;;10.18;;
70576;SDS011;58138;43.138;24.702;2023-11-22T11:38:54;14.70;;;10.60;;
70576;SDS011;58138;43.138;24.702;2023-11-22T11:41:25;12.68;;;10.88;;
70576;SDS011;58138;43.138;24.702;2023-11-22T11:43:52;14.85;;;11.00;;
70576;SDS011;58138;43.138;24.702;2023-11-22T11:46:18;19.48;;;13.80;;
70576;SDS011;58138;43.138;24.702;2023-11-22T11:48:43;23.20;;;16.33;;
70576;SDS011;58138;43.138;24.702;2023-11-22T11:51:25;22.63;;;16.02;;
70576;SDS011;58138;43.138;24.702;2023-11-22T11:53:52;20.40;;;13.85;;
70576;SDS011;58138;43.138;24.702;2023-11-22T11:56:19;17.92;;;14.57;;
70576;SDS011;58138;43.138;24.702;2023-11-22T11:58:45;18.55;;;12.93;;
70576;SDS011;58138;43.138;24.702;2023-11-22T12:01:12;13.77;;;10.73;;
70576;SDS011;58138;43.138;24.702;2023-11-22T12:03:38;14.55;;;11.20;;
70576;SDS011;58138;43.138;24.702;2023-11-22T12:06:06;14.75;;;12.40;;
70576;SDS011;58138;43.138;24.702;2023-11-22T12:08:33;18.77;;;13.80;;
70576;SDS011;58138;43.138;24.702;2023-11-22T12:11:04;29.20;;;17.77;;
70576;SDS011;58138;43.138;24.702;2023-11-22T12:13:33;28.70;;;19.20;;
70576;SDS011;58138;43.138;24.702;2023-11-22T12:16:00;37.30;;;22.35;;
70576;SDS011;58138;43.138;24.702;2023-11-22T12:18:27;40.60;;;25.83;;
70576;SDS011;58138;43.138;24.702;2023-11-22T12:20:54;42.17;;;25.52;;
70576;SDS011;58138;43.138;24.702;2023-11-22T12:23:23;43.75;;;25.20;;
70576;SDS011;58138;43.138;24.702;2023-11-22T12:25:55;40.67;;;25.77;;
70576;SDS011;58138;43.138;24.702;2023-11-22T12:28:24;32.72;;;23.20;;
70576;SDS011;58138;43.138;24.702;2023-11-22T12:30:51;27.50;;;20.08;;
70576;SDS011;58138;43.138;24.702;2023-11-22T12:33:17;21.67;;;16.52;;
70576;SDS011;58138;43.138;24.702;2023-11-22T12:35:44;19.63;;;16.05;;
70576;SDS011;58138;43.138;24.702;2023-11-22T12:38:14;21.15;;;17.42;;
70576;SDS011;58138;43.138;24.702;2023-11-22T12:40:44;20.20;;;17.98;;
70576;SDS011;58138;43.138;24.702;2023-11-22T12:43:12;20.80;;;18.60;;
70576;SDS011;58138;43.138;24.702;2023-11-22T12:45:39;16.85;;;15.05;;
70576;SDS011;58138;43.138;24.702;2023-11-22T12:48:24;17.23;;;15.38;;
70576;SDS011;58138;43.138;24.702;2023-11-22T12:50:51;17.00;;;15.20;;
70576;SDS011;58138;43.138;24.702;2023-11-22T12:53:19;18.10;;;15.82;;
70576;SDS011;58138;43.138;24.702;2023-11-22T12:55:49;16.88;;;14.48;;
70576;SDS011;58138;43.138;24.702;2023-11-22T12:58:16;21.08;;;14.85;;
70576;SDS011;58138;43.138;24.702;2023-11-22T13:00:46;19.75;;;15.82;;
70576;SDS011;58138;43.138;24.702;2023-11-22T13:03:13;23.00;;;17.83;;
70576;SDS011;58138;43.138;24.702;2023-11-22T13:05:39;27.23;;;20.15;;
70576;SDS011;58138;43.138;24.702;2023-11-22T13:08:08;27.73;;;21.70;;
70576;SDS011;58138;43.138;24.702;2023-11-22T13:10:36;25.27;;;20.30;;
70576;SDS011;58138;43.138;24.702;2023-11-22T13:13:01;25.48;;;20.00;;
70576;SDS011;58138;43.138;24.702;2023-11-22T13:15:27;20.75;;;17.30;;
70576;SDS011;58138;43.138;24.702;2023-11-22T13:17:53;19.52;;;16.65;;
70576;SDS011;58138;43.138;24.702;2023-11-22T13:20:21;23.33;;;18.83;;
70576;SDS011;58138;43.138;24.702;2023-11-22T13:22:51;24.60;;;19.85;;
70576;SDS011;58138;43.138;24.702;2023-11-22T13:25:23;29.08;;;24.02;;
70576;SDS011;58138;43.138;24.702;2023-11-22T13:27:49;22.83;;;19.00;;
70576;SDS011;58138;43.138;24.702;2023-11-22T13:30:15;43.40;;;33.22;;
70576;SDS011;58138;43.138;24.702;2023-11-22T13:32:44;29.27;;;22.95;;
70576;SDS011;58138;43.138;24.702;2023-11-22T13:35:10;29.63;;;23.63;;
70576;SDS011;58138;43.138;24.702;2023-11-22T13:37:40;35.50;;;27.15;;
70576;SDS011;58138;43.138;24.702;2023-11-22T13:40:08;39.15;;;31.70;;
70576;SDS011;58138;43.138;24.702;2023-11-22T13:42:39;43.95;;;32.60;;
70576;SDS011;58138;43.138;24.702;2023-11-22T13:45:06;37.80;;;29.77;;
70576;SDS011;58138;43.138;24.702;2023-11-22T13:47:32;33.30;;;27.20;;
70576;SDS011;58138;43.138;24.702;2023-11-22T13:49:58;38.20;;;29.48;;
70576;SDS011;58138;43.138;24.702;2023-11-22T13:52:24;37.13;;;28.73;;
70576;SDS011;58138;43.138;24.702;2023-11-22T13:54:49;32.85;;;25.67;;
70576;SDS011;58138;43.138;24.702;2023-11-22T13:57:16;33.65;;;25.13;;
70576;SDS011;58138;43.138;24.702;2023-11-22T13:59:42;32.90;;;26.05;;
70576;SDS011;58138;43.138;24.702;2023-11-22T14:02:08;35.17;;;27.30;;
70576;SDS011;58138;43.138;24.702;2023-11-22T14:04:33;33.72;;;25.80;;
70576;SDS011;58138;43.138;24.702;2023-11-22T14:06:59;85.90;;;63.65;;
70576;SDS011;58138;43.138;24.702;2023-11-22T14:09:25;39.28;;;29.08;;
70576;SDS011;58138;43.138;24.702;2023-11-22T14:11:52;38.13;;;27.38;;
70576;SDS011;58138;43.138;24.702;2023-11-22T14:14:18;37.75;;;27.23;;
70576;SDS011;58138;43.138;24.702;2023-11-22T14:16:44;38.30;;;27.70;;
70576;SDS011;58138;43.138;24.702;2023-11-22T14:19:11;40.00;;;30.05;;
70576;SDS011;58138;43.138;24.702;2023-11-22T14:21:38;40.38;;;30.63;;